sensor_id;sensor_type;location;lat;lon;timestamp;temperature;humidity
3792;DHT22;1911;53.768;11.474;2023-05-28T00:00:14;11.70;99.90
3792;DHT22;1911;53.768;11.474;2023-05-28T00:02:39;11.70;99.90
3792;DHT22;1911;53.768;11.474;2023-05-28T00:05:05;11.70;99.90
3792;DHT22;1911;53.768;11.474;2023-05-28T00:07:31;11.70;99.90
3792;DHT22;1911;53.768;11.474;2023-05-28T00:09:58;11.60;99.90
3792;DHT22;1911;53.768;11.474;2023-05-28T00:12:23;11.60;99.90
3792;DHT22;1911;53.768;11.474;2023-05-28T00:14:49;11.70;99.90
3792;DHT22;1911;53.768;11.474;2023-05-28T00:17:16;11.70;99.90
3792;DHT22;1911;53.768;11.474;2023-05-28T00:19:42;11.60;99.90
3792;DHT22;1911;53.768;11.474;2023-05-28T00:22:08;11.60;99.90
3792;DHT22;1911;53.768;11.474;2023-05-28T00:24:34;11.60;99.90
3792;DHT22;1911;53.768;11.474;2023-05-28T00:27:00;11.60;99.90
3792;DHT22;1911;53.768;11.474;2023-05-28T00:29:26;11.60;99.90
3792;DHT22;1911;53.768;11.474;2023-05-28T00:31:53;11.60;99.90
3792;DHT22;1911;53.768;11.474;2023-05-28T00:34:22;11.60;99.90
3792;DHT22;1911;53.768;11.474;2023-05-28T00:36:48;11.60;99.90
3792;DHT22;1911;53.768;11.474;2023-05-28T00:39:17;11.60;99.90
3792;DHT22;1911;53.768;11.474;2023-05-28T00:41:43;11.60;99.90
3792;DHT22;1911;53.768;11.474;2023-05-28T00:44:09;11.50;99.90
3792;DHT22;1911;53.768;11.474;2023-05-28T00:46:36;11.40;99.90
3792;DHT22;1911;53.768;11.474;2023-05-28T00:49:02;11.40;99.90
3792;DHT22;1911;53.768;11.474;2023-05-28T00:51:28;11.40;99.90
3792;DHT22;1911;53.768;11.474;2023-05-28T00:53:55;11.30;99.90
3792;DHT22;1911;53.768;11.474;2023-05-28T00:56:20;11.40;99.90
3792;DHT22;1911;53.768;11.474;2023-05-28T00:58:48;11.30;99.90
3792;DHT22;1911;53.768;11.474;2023-05-28T01:01:14;11.30;99.90
3792;DHT22;1911;53.768;11.474;2023-05-28T01:03:40;11.30;99.90
3792;DHT22;1911;53.768;11.474;2023-05-28T01:06:11;11.30;99.90
3792;DHT22;1911;53.768;11.474;2023-05-28T01:08:38;11.30;99.90
3792;DHT22;1911;53.768;11.474;2023-05-28T01:11:12;11.20;99.90
3792;DHT22;1911;53.768;11.474;2023-05-28T01:13:39;11.20;99.90
3792;DHT22;1911;53.768;11.474;2023-05-28T01:16:06;11.20;99.90
3792;DHT22;1911;53.768;11.474;2023-05-28T01:18:32;11.10;99.90
3792;DHT22;1911;53.768;11.474;2023-05-28T01:21:01;11.10;99.90
3792;DHT22;1911;53.768;11.474;2023-05-28T01:23:28;11.10;99.90
3792;DHT22;1911;53.768;11.474;2023-05-28T01:25:55;11.10;99.90
3792;DHT22;1911;53.768;11.474;2023-05-28T01:28:24;11.10;99.90
3792;DHT22;1911;53.768;11.474;2023-05-28T01:30:50;11.10;99.90
3792;DHT22;1911;53.768;11.474;2023-05-28T01:33:18;11.00;99.90
3792;DHT22;1911;53.768;11.474;2023-05-28T01:35:44;11.00;99.90
3792;DHT22;1911;53.768;11.474;2023-05-28T01:38:12;10.90;99.90
3792;DHT22;1911;53.768;11.474;2023-05-28T01:40:43;10.90;99.90
3792;DHT22;1911;53.768;11.474;2023-05-28T01:43:10;10.90;99.90
3792;DHT22;1911;53.768;11.474;2023-05-28T01:45:36;10.80;99.90
3792;DHT22;1911;53.768;11.474;2023-05-28T01:48:01;10.80;99.90
3792;DHT22;1911;53.768;11.474;2023-05-28T01:50:27;10.70;99.90
3792;DHT22;1911;53.768;11.474;2023-05-28T01:52:54;10.70;99.90
3792;DHT22;1911;53.768;11.474;2023-05-28T01:55:19;10.60;99.90
3792;DHT22;1911;53.768;11.474;2023-05-28T01:57:45;10.50;99.90
3792;DHT22;1911;53.768;11.474;2023-05-28T02:00:11;10.50;99.90
3792;DHT22;1911;53.768;11.474;2023-05-28T02:02:37;10.50;99.90
3792;DHT22;1911;53.768;11.474;2023-05-28T02:05:02;10.50;99.90
3792;DHT22;1911;53.768;11.474;2023-05-28T02:07:29;10.40;99.90
3792;DHT22;1911;53.768;11.474;2023-05-28T02:09:55;10.50;99.90
3792;DHT22;1911;53.768;11.474;2023-05-28T02:12:20;10.40;99.90
3792;DHT22;1911;53.768;11.474;2023-05-28T02:14:46;10.40;99.90
3792;DHT22;1911;53.768;11.474;2023-05-28T02:17:12;10.40;99.90
3792;DHT22;1911;53.768;11.474;2023-05-28T02:19:37;10.40;99.90
3792;DHT22;1911;53.768;11.474;2023-05-28T02:22:03;10.40;99.90
3792;DHT22;1911;53.768;11.474;2023-05-28T02:24:37;10.40;99.90
3792;DHT22;1911;53.768;11.474;2023-05-28T02:27:04;10.30;99.90
3792;DHT22;1911;53.768;11.474;2023-05-28T02:29:30;10.30;99.90
3792;DHT22;1911;53.768;11.474;2023-05-28T02:31:55;10.30;99.90
3792;DHT22;1911;53.768;11.474;2023-05-28T02:34:21;10.30;99.90
3792;DHT22;1911;53.768;11.474;2023-05-28T02:36:47;10.30;99.90
3792;DHT22;1911;53.768;11.474;2023-05-28T02:39:12;10.40;99.90
3792;DHT22;1911;53.768;11.474;2023-05-28T02:41:38;10.40;99.90
3792;DHT22;1911;53.768;11.474;2023-05-28T02:44:04;10.30;99.90
3792;DHT22;1911;53.768;11.474;2023-05-28T02:46:30;10.20;99.90
3792;DHT22;1911;53.768;11.474;2023-05-28T02:48:55;10.20;99.90
3792;DHT22;1911;53.768;11.474;2023-05-28T02:51:21;10.20;99.90
3792;DHT22;1911;53.768;11.474;2023-05-28T02:53:46;10.20;99.90
3792;DHT22;1911;53.768;11.474;2023-05-28T02:56:12;10.10;99.90
3792;DHT22;1911;53.768;11.474;2023-05-28T02:58:38;10.00;99.90
3792;DHT22;1911;53.768;11.474;2023-05-28T03:01:04;10.00;99.90
3792;DHT22;1911;53.768;11.474;2023-05-28T03:03:31;10.00;99.90
3792;DHT22;1911;53.768;11.474;2023-05-28T03:05:57;10.00;99.90
3792;DHT22;1911;53.768;11.474;2023-05-28T03:08:23;9.90;99.90
3792;DHT22;1911;53.768;11.474;2023-05-28T03:10:48;9.90;99.90
3792;DHT22;1911;53.768;11.474;2023-05-28T03:13:14;9.90;99.90
3792;DHT22;1911;53.768;11.474;2023-05-28T03:15:39;9.80;99.90
3792;DHT22;1911;53.768;11.474;2023-05-28T03:18:05;9.80;99.90
3792;DHT22;1911;53.768;11.474;2023-05-28T03:20:31;9.80;99.90
3792;DHT22;1911;53.768;11.474;2023-05-28T03:22:57;9.90;99.90
3792;DHT22;1911;53.768;11.474;2023-05-28T03:25:26;10.00;99.90
3792;DHT22;1911;53.768;11.474;2023-05-28T03:27:52;10.00;99.90
3792;DHT22;1911;53.768;11.474;2023-05-28T03:30:18;9.90;99.90
3792;DHT22;1911;53.768;11.474;2023-05-28T03:32:44;9.90;99.90
3792;DHT22;1911;53.768;11.474;2023-05-28T03:35:10;9.90;99.90
3792;DHT22;1911;53.768;11.474;2023-05-28T03:37:35;9.90;99.90
3792;DHT22;1911;53.768;11.474;2023-05-28T03:40:01;9.90;99.90
3792;DHT22;1911;53.768;11.474;2023-05-28T03:42:29;9.90;99.90
3792;DHT22;1911;53.768;11.474;2023-05-28T03:44:55;10.10;99.90
3792;DHT22;1911;53.768;11.474;2023-05-28T03:47:21;9.90;99.90
3792;DHT22;1911;53.768;11.474;2023-05-28T03:49:47;9.80;99.90
3792;DHT22;1911;53.768;11.474;2023-05-28T03:52:12;9.60;99.90
3792;DHT22;1911;53.768;11.474;2023-05-28T03:54:38;9.60;99.90
3792;DHT22;1911;53.768;11.474;2023-05-28T03:57:04;9.60;99.90
3792;DHT22;1911;53.768;11.474;2023-05-28T03:59:29;9.50;99.90
3792;DHT22;1911;53.768;11.474;2023-05-28T04:01:55;9.50;99.90
3792;DHT22;1911;53.768;11.474;2023-05-28T04:04:21;9.50;99.90
3792;DHT22;1911;53.768;11.474;2023-05-28T04:06:46;9.40;99.90
3792;DHT22;1911;53.768;11.474;2023-05-28T04:09:12;9.50;99.90
3792;DHT22;1911;53.768;11.474;2023-05-28T04:11:37;9.50;99.90
3792;DHT22;1911;53.768;11.474;2023-05-28T04:14:04;9.50;99.90
3792;DHT22;1911;53.768;11.474;2023-05-28T04:16:30;9.80;99.90
3792;DHT22;1911;53.768;11.474;2023-05-28T04:18:56;9.90;99.90
3792;DHT22;1911;53.768;11.474;2023-05-28T04:21:23;9.90;99.90
3792;DHT22;1911;53.768;11.474;2023-05-28T04:23:49;10.00;99.90
3792;DHT22;1911;53.768;11.474;2023-05-28T04:26:14;10.00;99.90
3792;DHT22;1911;53.768;11.474;2023-05-28T04:28:41;10.10;99.90
3792;DHT22;1911;53.768;11.474;2023-05-28T04:31:07;10.30;99.90
3792;DHT22;1911;53.768;11.474;2023-05-28T04:33:33;10.30;99.90
3792;DHT22;1911;53.768;11.474;2023-05-28T04:36:00;10.50;99.90
3792;DHT22;1911;53.768;11.474;2023-05-28T04:38:27;10.60;99.90
3792;DHT22;1911;53.768;11.474;2023-05-28T04:40:59;10.90;99.90
3792;DHT22;1911;53.768;11.474;2023-05-28T04:43:30;11.10;99.90
3792;DHT22;1911;53.768;11.474;2023-05-28T04:45:56;11.40;99.90
3792;DHT22;1911;53.768;11.474;2023-05-28T04:48:27;11.70;99.90
3792;DHT22;1911;53.768;11.474;2023-05-28T04:50:53;11.70;99.90
3792;DHT22;1911;53.768;11.474;2023-05-28T04:53:19;11.90;99.90
3792;DHT22;1911;53.768;11.474;2023-05-28T04:55:44;12.10;99.90
3792;DHT22;1911;53.768;11.474;2023-05-28T04:58:10;12.40;99.90
3792;DHT22;1911;53.768;11.474;2023-05-28T05:00:36;12.50;99.90
3792;DHT22;1911;53.768;11.474;2023-05-28T05:03:02;12.60;99.90
3792;DHT22;1911;53.768;11.474;2023-05-28T05:05:27;12.90;99.90
3792;DHT22;1911;53.768;11.474;2023-05-28T05:07:53;12.90;99.90
3792;DHT22;1911;53.768;11.474;2023-05-28T05:10:19;13.10;99.90
3792;DHT22;1911;53.768;11.474;2023-05-28T05:12:45;12.90;99.90
3792;DHT22;1911;53.768;11.474;2023-05-28T05:15:10;13.00;99.90
3792;DHT22;1911;53.768;11.474;2023-05-28T05:17:36;13.30;99.90
3792;DHT22;1911;53.768;11.474;2023-05-28T05:20:03;13.70;99.90
3792;DHT22;1911;53.768;11.474;2023-05-28T05:22:30;14.50;99.90
3792;DHT22;1911;53.768;11.474;2023-05-28T05:24:56;15.90;64.90
3792;DHT22;1911;53.768;11.474;2023-05-28T05:27:22;17.40;1.00
3792;DHT22;1911;53.768;11.474;2023-05-28T05:29:48;18.60;99.90
3792;DHT22;1911;53.768;11.474;2023-05-28T05:32:13;19.90;1.00
3792;DHT22;1911;53.768;11.474;2023-05-28T05:34:39;20.90;99.90
3792;DHT22;1911;53.768;11.474;2023-05-28T05:37:05;21.70;99.90
3792;DHT22;1911;53.768;11.474;2023-05-28T05:39:31;22.30;92.60
3792;DHT22;1911;53.768;11.474;2023-05-28T05:41:56;22.70;1.00
3792;DHT22;1911;53.768;11.474;2023-05-28T05:44:22;23.30;1.00
3792;DHT22;1911;53.768;11.474;2023-05-28T05:46:48;23.80;1.00
3792;DHT22;1911;53.768;11.474;2023-05-28T05:49:13;24.20;1.00
3792;DHT22;1911;53.768;11.474;2023-05-28T05:51:39;24.60;1.00
3792;DHT22;1911;53.768;11.474;2023-05-28T05:54:05;24.80;1.00
3792;DHT22;1911;53.768;11.474;2023-05-28T05:56:31;25.00;1.00
3792;DHT22;1911;53.768;11.474;2023-05-28T05:58:57;25.20;1.00
3792;DHT22;1911;53.768;11.474;2023-05-28T06:01:23;25.50;1.00
3792;DHT22;1911;53.768;11.474;2023-05-28T06:03:49;25.80;1.00
3792;DHT22;1911;53.768;11.474;2023-05-28T06:06:14;25.80;1.00
3792;DHT22;1911;53.768;11.474;2023-05-28T06:08:40;26.00;1.00
3792;DHT22;1911;53.768;11.474;2023-05-28T06:11:06;26.00;1.00
3792;DHT22;1911;53.768;11.474;2023-05-28T06:13:32;26.10;1.00
3792;DHT22;1911;53.768;11.474;2023-05-28T06:15:59;26.10;1.00
3792;DHT22;1911;53.768;11.474;2023-05-28T06:18:26;26.20;99.90
3792;DHT22;1911;53.768;11.474;2023-05-28T06:20:51;26.40;99.90
3792;DHT22;1911;53.768;11.474;2023-05-28T06:23:17;26.40;99.90
3792;DHT22;1911;53.768;11.474;2023-05-28T06:25:43;26.60;99.90
3792;DHT22;1911;53.768;11.474;2023-05-28T06:28:09;26.80;99.90
3792;DHT22;1911;53.768;11.474;2023-05-28T06:30:35;26.30;99.90
3792;DHT22;1911;53.768;11.474;2023-05-28T06:33:01;26.30;99.90
3792;DHT22;1911;53.768;11.474;2023-05-28T06:35:27;26.40;99.90
3792;DHT22;1911;53.768;11.474;2023-05-28T06:37:52;26.60;99.90
3792;DHT22;1911;53.768;11.474;2023-05-28T06:40:18;26.60;99.90
3792;DHT22;1911;53.768;11.474;2023-05-28T06:42:44;26.30;99.90
3792;DHT22;1911;53.768;11.474;2023-05-28T06:45:09;26.20;99.90
3792;DHT22;1911;53.768;11.474;2023-05-28T06:47:36;26.20;99.90
3792;DHT22;1911;53.768;11.474;2023-05-28T06:50:01;26.00;99.90
3792;DHT22;1911;53.768;11.474;2023-05-28T06:52:27;26.10;99.90
3792;DHT22;1911;53.768;11.474;2023-05-28T06:54:52;26.40;99.90
3792;DHT22;1911;53.768;11.474;2023-05-28T06:57:18;26.60;99.90
3792;DHT22;1911;53.768;11.474;2023-05-28T06:59:44;26.20;99.90
3792;DHT22;1911;53.768;11.474;2023-05-28T07:02:09;26.30;99.90
3792;DHT22;1911;53.768;11.474;2023-05-28T07:04:36;23.20;99.90
3792;DHT22;1911;53.768;11.474;2023-05-28T07:07:03;24.00;99.90
3792;DHT22;1911;53.768;11.474;2023-05-28T07:09:29;25.40;99.90
3792;DHT22;1911;53.768;11.474;2023-05-28T07:11:55;26.10;99.90
3792;DHT22;1911;53.768;11.474;2023-05-28T07:14:20;26.90;1.00
3792;DHT22;1911;53.768;11.474;2023-05-28T07:16:46;27.30;1.00
3792;DHT22;1911;53.768;11.474;2023-05-28T07:19:12;24.40;99.90
3792;DHT22;1911;53.768;11.474;2023-05-28T07:21:37;23.70;99.90
3792;DHT22;1911;53.768;11.474;2023-05-28T07:24:04;25.00;99.90
3792;DHT22;1911;53.768;11.474;2023-05-28T07:26:31;23.30;99.90
3792;DHT22;1911;53.768;11.474;2023-05-28T07:28:57;23.70;99.90
3792;DHT22;1911;53.768;11.474;2023-05-28T07:31:22;22.60;99.90
3792;DHT22;1911;53.768;11.474;2023-05-28T07:33:49;20.00;99.90
3792;DHT22;1911;53.768;11.474;2023-05-28T07:36:14;20.20;99.90
3792;DHT22;1911;53.768;11.474;2023-05-28T07:38:42;19.00;99.90
3792;DHT22;1911;53.768;11.474;2023-05-28T07:41:07;19.20;99.90
3792;DHT22;1911;53.768;11.474;2023-05-28T07:43:33;19.40;99.90
3792;DHT22;1911;53.768;11.474;2023-05-28T07:45:58;20.00;1.00
3792;DHT22;1911;53.768;11.474;2023-05-28T07:48:24;19.80;1.00
3792;DHT22;1911;53.768;11.474;2023-05-28T07:50:49;19.10;99.90
3792;DHT22;1911;53.768;11.474;2023-05-28T07:53:16;19.70;1.00
3792;DHT22;1911;53.768;11.474;2023-05-28T07:55:43;20.60;1.00
3792;DHT22;1911;53.768;11.474;2023-05-28T07:58:08;21.00;1.00
3792;DHT22;1911;53.768;11.474;2023-05-28T08:00:34;20.40;1.00
3792;DHT22;1911;53.768;11.474;2023-05-28T08:03:02;20.50;1.00
3792;DHT22;1911;53.768;11.474;2023-05-28T08:05:28;20.90;1.00
3792;DHT22;1911;53.768;11.474;2023-05-28T08:07:53;21.70;1.00
3792;DHT22;1911;53.768;11.474;2023-05-28T08:10:19;20.20;99.90
3792;DHT22;1911;53.768;11.474;2023-05-28T08:12:45;20.50;1.00
3792;DHT22;1911;53.768;11.474;2023-05-28T08:15:10;20.70;1.00
3792;DHT22;1911;53.768;11.474;2023-05-28T08:17:36;20.10;1.00
3792;DHT22;1911;53.768;11.474;2023-05-28T08:20:02;20.00;1.00
3792;DHT22;1911;53.768;11.474;2023-05-28T08:22:28;20.00;1.00
3792;DHT22;1911;53.768;11.474;2023-05-28T08:24:54;19.20;1.00
3792;DHT22;1911;53.768;11.474;2023-05-28T08:27:20;18.70;1.00
3792;DHT22;1911;53.768;11.474;2023-05-28T08:29:46;19.20;1.00
3792;DHT22;1911;53.768;11.474;2023-05-28T08:32:12;19.50;1.00
3792;DHT22;1911;53.768;11.474;2023-05-28T08:34:38;19.10;1.00
3792;DHT22;1911;53.768;11.474;2023-05-28T08:37:04;18.50;1.00
3792;DHT22;1911;53.768;11.474;2023-05-28T08:39:29;18.50;1.00
3792;DHT22;1911;53.768;11.474;2023-05-28T08:41:56;18.00;1.00
3792;DHT22;1911;53.768;11.474;2023-05-28T08:44:22;18.00;1.00
3792;DHT22;1911;53.768;11.474;2023-05-28T08:46:48;18.20;1.00
3792;DHT22;1911;53.768;11.474;2023-05-28T08:49:17;18.20;1.00
3792;DHT22;1911;53.768;11.474;2023-05-28T08:51:44;18.00;1.00
3792;DHT22;1911;53.768;11.474;2023-05-28T08:54:10;17.80;1.00
3792;DHT22;1911;53.768;11.474;2023-05-28T08:56:36;18.20;1.00
3792;DHT22;1911;53.768;11.474;2023-05-28T08:59:03;18.40;1.00
3792;DHT22;1911;53.768;11.474;2023-05-28T09:01:30;18.50;1.00
3792;DHT22;1911;53.768;11.474;2023-05-28T09:03:55;17.80;1.00
3792;DHT22;1911;53.768;11.474;2023-05-28T09:06:21;17.50;1.00
3792;DHT22;1911;53.768;11.474;2023-05-28T09:08:49;17.30;1.00
3792;DHT22;1911;53.768;11.474;2023-05-28T09:11:15;17.30;1.00
3792;DHT22;1911;53.768;11.474;2023-05-28T09:13:45;17.20;99.90
3792;DHT22;1911;53.768;11.474;2023-05-28T09:16:12;17.00;99.90
3792;DHT22;1911;53.768;11.474;2023-05-28T09:18:46;16.70;18.50
3792;DHT22;1911;53.768;11.474;2023-05-28T09:21:13;16.50;9.20
3792;DHT22;1911;53.768;11.474;2023-05-28T09:23:39;16.70;99.90
3792;DHT22;1911;53.768;11.474;2023-05-28T09:26:08;16.80;25.80
3792;DHT22;1911;53.768;11.474;2023-05-28T09:28:35;17.00;1.00
3792;DHT22;1911;53.768;11.474;2023-05-28T09:31:04;17.10;1.00
3792;DHT22;1911;53.768;11.474;2023-05-28T09:33:32;17.20;1.00
3792;DHT22;1911;53.768;11.474;2023-05-28T09:36:03;17.40;1.00
3792;DHT22;1911;53.768;11.474;2023-05-28T09:38:38;17.80;1.00
3792;DHT22;1911;53.768;11.474;2023-05-28T09:41:26;18.50;1.00
3792;DHT22;1911;53.768;11.474;2023-05-28T09:44:03;18.90;1.00
3792;DHT22;1911;53.768;11.474;2023-05-28T09:46:32;18.60;1.00
3792;DHT22;1911;53.768;11.474;2023-05-28T09:48:59;18.90;1.00
3792;DHT22;1911;53.768;11.474;2023-05-28T09:51:26;18.80;1.00
3792;DHT22;1911;53.768;11.474;2023-05-28T09:54:03;18.90;1.00
3792;DHT22;1911;53.768;11.474;2023-05-28T09:56:31;19.30;1.00
3792;DHT22;1911;53.768;11.474;2023-05-28T09:58:58;19.90;1.00
3792;DHT22;1911;53.768;11.474;2023-05-28T10:01:26;19.90;1.00
3792;DHT22;1911;53.768;11.474;2023-05-28T10:04:07;19.30;1.00
3792;DHT22;1911;53.768;11.474;2023-05-28T10:06:35;19.50;1.00
3792;DHT22;1911;53.768;11.474;2023-05-28T10:09:02;19.70;1.00
3792;DHT22;1911;53.768;11.474;2023-05-28T10:11:30;19.80;1.00
3792;DHT22;1911;53.768;11.474;2023-05-28T10:13:59;19.60;1.00
3792;DHT22;1911;53.768;11.474;2023-05-28T10:16:25;20.20;1.00
3792;DHT22;1911;53.768;11.474;2023-05-28T10:18:53;20.10;1.00
3792;DHT22;1911;53.768;11.474;2023-05-28T10:21:19;19.70;1.00
3792;DHT22;1911;53.768;11.474;2023-05-28T10:23:45;20.00;1.00
3792;DHT22;1911;53.768;11.474;2023-05-28T10:26:13;20.10;1.00
3792;DHT22;1911;53.768;11.474;2023-05-28T10:28:39;19.90;1.00
3792;DHT22;1911;53.768;11.474;2023-05-28T10:31:06;19.50;1.00
3792;DHT22;1911;53.768;11.474;2023-05-28T10:33:42;19.30;1.00
3792;DHT22;1911;53.768;11.474;2023-05-28T10:36:10;19.70;1.00
3792;DHT22;1911;53.768;11.474;2023-05-28T10:38:43;20.10;1.00
3792;DHT22;1911;53.768;11.474;2023-05-28T10:41:09;19.80;1.00
3792;DHT22;1911;53.768;11.474;2023-05-28T10:46:03;20.10;1.00
3792;DHT22;1911;53.768;11.474;2023-05-28T10:48:31;20.00;1.00
3792;DHT22;1911;53.768;11.474;2023-05-28T10:50:57;19.70;1.00
3792;DHT22;1911;53.768;11.474;2023-05-28T10:53:25;20.00;1.00
3792;DHT22;1911;53.768;11.474;2023-05-28T10:55:55;20.40;1.00
3792;DHT22;1911;53.768;11.474;2023-05-28T10:58:24;21.00;1.00
3792;DHT22;1911;53.768;11.474;2023-05-28T11:00:50;21.10;1.00
3792;DHT22;1911;53.768;11.474;2023-05-28T11:03:16;21.10;1.00
3792;DHT22;1911;53.768;11.474;2023-05-28T11:05:41;21.00;1.00
3792;DHT22;1911;53.768;11.474;2023-05-28T11:08:07;20.80;1.00
3792;DHT22;1911;53.768;11.474;2023-05-28T11:10:33;20.70;1.00
3792;DHT22;1911;53.768;11.474;2023-05-28T11:13:00;20.50;1.00
3792;DHT22;1911;53.768;11.474;2023-05-28T11:15:29;20.40;1.00
3792;DHT22;1911;53.768;11.474;2023-05-28T11:17:55;20.10;1.00
3792;DHT22;1911;53.768;11.474;2023-05-28T11:20:25;19.40;1.00
3792;DHT22;1911;53.768;11.474;2023-05-28T11:22:52;19.70;1.00
3792;DHT22;1911;53.768;11.474;2023-05-28T11:25:18;20.30;1.00
3792;DHT22;1911;53.768;11.474;2023-05-28T11:27:47;20.40;1.00
3792;DHT22;1911;53.768;11.474;2023-05-28T11:30:14;20.40;1.00
3792;DHT22;1911;53.768;11.474;2023-05-28T11:32:42;20.10;1.00
3792;DHT22;1911;53.768;11.474;2023-05-28T11:35:14;20.20;1.00
3792;DHT22;1911;53.768;11.474;2023-05-28T11:37:42;20.20;1.00
3792;DHT22;1911;53.768;11.474;2023-05-28T11:40:09;20.00;1.00
3792;DHT22;1911;53.768;11.474;2023-05-28T11:42:36;19.50;99.90
3792;DHT22;1911;53.768;11.474;2023-05-28T11:45:03;19.60;99.90
3792;DHT22;1911;53.768;11.474;2023-05-28T11:47:32;19.70;1.00
3792;DHT22;1911;53.768;11.474;2023-05-28T11:49:57;19.70;1.00
3792;DHT22;1911;53.768;11.474;2023-05-28T11:52:25;19.40;99.90
3792;DHT22;1911;53.768;11.474;2023-05-28T11:54:56;19.50;99.90
3792;DHT22;1911;53.768;11.474;2023-05-28T11:57:26;19.50;99.90
3792;DHT22;1911;53.768;11.474;2023-05-28T12:00:05;19.60;99.90
3792;DHT22;1911;53.768;11.474;2023-05-28T12:02:59;19.40;99.90
3792;DHT22;1911;53.768;11.474;2023-05-28T12:05:25;19.30;99.90
3792;DHT22;1911;53.768;11.474;2023-05-28T12:07:52;19.00;99.90
3792;DHT22;1911;53.768;11.474;2023-05-28T12:10:20;19.50;99.90
3792;DHT22;1911;53.768;11.474;2023-05-28T12:12:51;19.20;99.90
3792;DHT22;1911;53.768;11.474;2023-05-28T12:15:24;19.40;99.90
3792;DHT22;1911;53.768;11.474;2023-05-28T12:17:57;19.20;99.90
3792;DHT22;1911;53.768;11.474;2023-05-28T12:23:12;19.30;99.90
3792;DHT22;1911;53.768;11.474;2023-05-28T12:28:13;19.00;99.90
3792;DHT22;1911;53.768;11.474;2023-05-28T12:30:42;19.10;99.90
3792;DHT22;1911;53.768;11.474;2023-05-28T12:33:08;19.00;99.90
3792;DHT22;1911;53.768;11.474;2023-05-28T12:35:34;19.00;99.90
3792;DHT22;1911;53.768;11.474;2023-05-28T12:38:00;19.10;99.90
3792;DHT22;1911;53.768;11.474;2023-05-28T12:40:26;19.00;99.90
3792;DHT22;1911;53.768;11.474;2023-05-28T12:42:52;18.80;99.90
3792;DHT22;1911;53.768;11.474;2023-05-28T12:45:17;18.80;99.90
3792;DHT22;1911;53.768;11.474;2023-05-28T12:47:43;18.90;99.90
3792;DHT22;1911;53.768;11.474;2023-05-28T12:50:08;19.00;99.90
3792;DHT22;1911;53.768;11.474;2023-05-28T12:52:34;19.20;99.90
3792;DHT22;1911;53.768;11.474;2023-05-28T12:55:03;19.10;99.90
3792;DHT22;1911;53.768;11.474;2023-05-28T12:57:29;18.90;99.90
3792;DHT22;1911;53.768;11.474;2023-05-28T12:59:58;18.80;99.90
3792;DHT22;1911;53.768;11.474;2023-05-28T13:02:24;18.80;99.90
3792;DHT22;1911;53.768;11.474;2023-05-28T13:04:49;18.90;99.90
3792;DHT22;1911;53.768;11.474;2023-05-28T13:07:15;19.10;99.90
3792;DHT22;1911;53.768;11.474;2023-05-28T13:09:41;19.20;99.90
3792;DHT22;1911;53.768;11.474;2023-05-28T13:12:07;19.10;99.90
3792;DHT22;1911;53.768;11.474;2023-05-28T13:14:33;19.30;99.90
3792;DHT22;1911;53.768;11.474;2023-05-28T13:16:59;19.20;99.90
3792;DHT22;1911;53.768;11.474;2023-05-28T13:19:25;19.00;99.90
3792;DHT22;1911;53.768;11.474;2023-05-28T13:21:51;19.20;99.90
3792;DHT22;1911;53.768;11.474;2023-05-28T13:24:17;19.20;99.90
3792;DHT22;1911;53.768;11.474;2023-05-28T13:26:43;19.20;99.90
3792;DHT22;1911;53.768;11.474;2023-05-28T13:29:08;19.30;99.90
3792;DHT22;1911;53.768;11.474;2023-05-28T13:31:34;19.40;99.90
3792;DHT22;1911;53.768;11.474;2023-05-28T13:34:00;19.20;99.90
3792;DHT22;1911;53.768;11.474;2023-05-28T13:36:26;19.20;99.90
3792;DHT22;1911;53.768;11.474;2023-05-28T13:38:52;19.20;99.90
3792;DHT22;1911;53.768;11.474;2023-05-28T13:41:19;19.30;99.90
3792;DHT22;1911;53.768;11.474;2023-05-28T13:43:46;19.40;99.90
3792;DHT22;1911;53.768;11.474;2023-05-28T13:46:11;19.30;99.90
3792;DHT22;1911;53.768;11.474;2023-05-28T13:48:37;19.60;99.90
3792;DHT22;1911;53.768;11.474;2023-05-28T13:51:03;19.40;99.90
3792;DHT22;1911;53.768;11.474;2023-05-28T13:53:29;19.30;99.90
3792;DHT22;1911;53.768;11.474;2023-05-28T13:55:56;19.00;99.90
3792;DHT22;1911;53.768;11.474;2023-05-28T13:58:23;19.20;99.90
3792;DHT22;1911;53.768;11.474;2023-05-28T14:00:49;19.10;99.90
3792;DHT22;1911;53.768;11.474;2023-05-28T14:03:17;19.10;99.90
3792;DHT22;1911;53.768;11.474;2023-05-28T14:05:44;18.80;99.90
3792;DHT22;1911;53.768;11.474;2023-05-28T14:08:12;18.80;99.90
3792;DHT22;1911;53.768;11.474;2023-05-28T14:10:38;18.90;99.90
3792;DHT22;1911;53.768;11.474;2023-05-28T14:13:04;19.00;99.90
3792;DHT22;1911;53.768;11.474;2023-05-28T14:15:30;18.90;99.90
3792;DHT22;1911;53.768;11.474;2023-05-28T14:17:55;19.00;99.90
3792;DHT22;1911;53.768;11.474;2023-05-28T14:20:21;19.00;99.90
3792;DHT22;1911;53.768;11.474;2023-05-28T14:22:46;18.50;99.90
3792;DHT22;1911;53.768;11.474;2023-05-28T14:25:12;18.60;99.90
3792;DHT22;1911;53.768;11.474;2023-05-28T14:27:38;18.70;97.40
3792;DHT22;1911;53.768;11.474;2023-05-28T14:30:04;18.60;82.00
3792;DHT22;1911;53.768;11.474;2023-05-28T14:32:30;18.70;66.70
3792;DHT22;1911;53.768;11.474;2023-05-28T14:34:57;18.60;68.00
3792;DHT22;1911;53.768;11.474;2023-05-28T14:37:22;18.70;76.00
3792;DHT22;1911;53.768;11.474;2023-05-28T14:39:49;18.80;90.00
3792;DHT22;1911;53.768;11.474;2023-05-28T14:42:14;18.90;99.90
3792;DHT22;1911;53.768;11.474;2023-05-28T14:44:40;18.80;99.90
3792;DHT22;1911;53.768;11.474;2023-05-28T14:47:05;18.80;99.90
3792;DHT22;1911;53.768;11.474;2023-05-28T14:49:31;18.80;99.90
3792;DHT22;1911;53.768;11.474;2023-05-28T14:51:57;18.40;51.50
3792;DHT22;1911;53.768;11.474;2023-05-28T14:54:23;18.60;65.50
3792;DHT22;1911;53.768;11.474;2023-05-28T14:56:48;18.80;42.90
3792;DHT22;1911;53.768;11.474;2023-05-28T14:59:14;18.60;31.40
3792;DHT22;1911;53.768;11.474;2023-05-28T15:01:40;18.60;1.00
3792;DHT22;1911;53.768;11.474;2023-05-28T15:04:06;18.50;1.00
3792;DHT22;1911;53.768;11.474;2023-05-28T15:06:31;18.50;1.00
3792;DHT22;1911;53.768;11.474;2023-05-28T15:08:58;18.60;1.00
3792;DHT22;1911;53.768;11.474;2023-05-28T15:11:24;18.70;1.00
3792;DHT22;1911;53.768;11.474;2023-05-28T15:13:51;18.60;1.00
3792;DHT22;1911;53.768;11.474;2023-05-28T15:16:17;18.60;1.00
3792;DHT22;1911;53.768;11.474;2023-05-28T15:18:43;18.70;1.00
3792;DHT22;1911;53.768;11.474;2023-05-28T15:21:08;18.70;1.00
3792;DHT22;1911;53.768;11.474;2023-05-28T15:23:35;18.60;1.00
3792;DHT22;1911;53.768;11.474;2023-05-28T15:26:01;18.60;1.00
3792;DHT22;1911;53.768;11.474;2023-05-28T15:28:27;18.60;1.00
3792;DHT22;1911;53.768;11.474;2023-05-28T15:30:53;18.50;1.00
3792;DHT22;1911;53.768;11.474;2023-05-28T15:33:19;18.70;1.00
3792;DHT22;1911;53.768;11.474;2023-05-28T15:35:45;18.50;1.00
3792;DHT22;1911;53.768;11.474;2023-05-28T15:38:11;18.50;1.00
3792;DHT22;1911;53.768;11.474;2023-05-28T15:40:37;18.50;26.90
3792;DHT22;1911;53.768;11.474;2023-05-28T15:43:03;18.60;41.60
3792;DHT22;1911;53.768;11.474;2023-05-28T15:45:30;18.90;82.20
3792;DHT22;1911;53.768;11.474;2023-05-28T15:47:56;18.80;95.90
3792;DHT22;1911;53.768;11.474;2023-05-28T15:50:21;18.70;99.90
3792;DHT22;1911;53.768;11.474;2023-05-28T15:52:49;18.90;99.90
3792;DHT22;1911;53.768;11.474;2023-05-28T15:55:15;18.80;99.90